createdAt,value
2024-05-09T00:01:51.593Z,14.06
2024-05-09T00:04:21.116Z,14.05
2024-05-09T00:06:50.664Z,14.04
2024-05-09T00:09:20.190Z,14.01
2024-05-09T00:11:49.845Z,13.99
2024-05-09T00:14:19.570Z,14.00
2024-05-09T00:16:52.262Z,13.99
2024-05-09T00:19:21.953Z,13.98
2024-05-09T00:21:51.512Z,13.95
2024-05-09T00:24:21.103Z,13.94
2024-05-09T00:26:50.680Z,13.92
2024-05-09T00:29:20.267Z,13.90
2024-05-09T00:31:52.445Z,13.89
2024-05-09T00:34:22.066Z,13.87
2024-05-09T00:36:51.737Z,13.87
2024-05-09T00:39:21.291Z,13.86
2024-05-09T00:41:50.857Z,13.84
2024-05-09T00:44:20.439Z,13.82
2024-05-09T00:46:55.406Z,13.81
2024-05-09T00:49:26.180Z,13.79
2024-05-09T00:51:56.989Z,13.79
2024-05-09T00:54:27.138Z,13.78
2024-05-09T00:56:57.144Z,13.77
2024-05-09T00:59:27.495Z,13.76
2024-05-09T01:02:01.430Z,13.76
2024-05-09T01:04:31.011Z,13.76
2024-05-09T01:07:00.659Z,13.71
2024-05-09T01:09:30.336Z,13.72
2024-05-09T01:11:59.974Z,13.70
2024-05-09T01:14:29.692Z,13.71
2024-05-09T01:17:02.014Z,13.73
2024-05-09T01:19:33.100Z,13.69
2024-05-09T01:22:04.292Z,13.70
2024-05-09T01:24:36.417Z,13.70
2024-05-09T01:27:06.215Z,13.67
2024-05-09T01:29:35.833Z,13.67
2024-05-09T01:32:05.538Z,13.67
2024-05-09T01:34:35.161Z,13.64
2024-05-09T01:37:04.704Z,13.64
2024-05-09T01:39:36.859Z,13.63
2024-05-09T01:42:06.836Z,13.61
2024-05-09T01:44:36.407Z,13.59
2024-05-09T01:47:06.184Z,13.58
2024-05-09T01:49:39.136Z,13.56
2024-05-09T01:52:08.916Z,13.55
2024-05-09T01:54:41.088Z,13.54
2024-05-09T01:57:10.621Z,13.53
2024-05-09T01:59:40.192Z,13.54
2024-05-09T02:02:10.156Z,13.51
2024-05-09T02:04:39.939Z,13.50
2024-05-09T02:07:10.327Z,13.49
2024-05-09T02:09:42.408Z,13.50
2024-05-09T02:12:12.608Z,13.49
2024-05-09T02:14:42.311Z,13.48
2024-05-09T02:17:11.975Z,13.47
2024-05-09T02:19:41.557Z,13.47
2024-05-09T02:22:11.221Z,13.47
2024-05-09T02:24:43.384Z,13.48
2024-05-09T02:27:12.932Z,13.48
2024-05-09T02:29:42.591Z,13.47
2024-05-09T02:32:12.182Z,13.46
2024-05-09T02:34:41.844Z,13.45
2024-05-09T02:37:11.383Z,13.46
2024-05-09T02:39:40.914Z,13.45
2024-05-09T02:42:10.403Z,13.45
2024-05-09T02:44:37.410Z,13.43
2024-05-09T02:47:07.529Z,13.43
2024-05-09T02:49:34.623Z,13.43
2024-05-09T02:52:04.193Z,13.42
2024-05-09T02:54:31.195Z,13.43
2024-05-09T02:57:03.337Z,13.42
2024-05-09T02:59:30.294Z,13.40
2024-05-09T03:01:59.955Z,13.41
2024-05-09T03:04:26.955Z,13.40
2024-05-09T03:06:56.545Z,13.39
2024-05-09T03:09:24.185Z,13.39
2024-05-09T03:11:54.726Z,13.36
2024-05-09T03:14:24.492Z,13.34
2024-05-09T03:16:54.056Z,13.34
2024-05-09T03:19:21.168Z,13.33
2024-05-09T03:21:50.962Z,13.33
2024-05-09T03:24:17.862Z,13.31
2024-05-09T03:26:47.444Z,13.30
2024-05-09T03:29:14.435Z,13.30
2024-05-09T03:31:46.680Z,13.29
2024-05-09T03:34:13.687Z,13.28
2024-05-09T03:36:46.223Z,13.28
2024-05-09T03:39:15.729Z,13.27
2024-05-09T03:41:45.341Z,13.26
2024-05-09T03:44:14.985Z,13.24
2024-05-09T03:46:44.621Z,13.23
2024-05-09T03:49:14.447Z,13.24
2024-05-09T03:51:41.480Z,13.22
2024-05-09T03:54:11.006Z,13.23
2024-05-09T03:56:38.166Z,13.22
2024-05-09T03:59:07.767Z,13.22
2024-05-09T04:01:34.801Z,13.20
2024-05-09T04:04:08.975Z,13.20
2024-05-09T04:06:36.055Z,13.18
2024-05-09T04:09:05.591Z,13.15
2024-05-09T04:11:32.721Z,13.16
2024-05-09T04:14:02.345Z,13.14
2024-05-09T04:16:29.296Z,13.14
2024-05-09T04:18:58.938Z,13.13
2024-05-09T04:21:28.566Z,13.13
2024-05-09T04:23:58.087Z,13.11
2024-05-09T04:26:25.107Z,13.10
2024-05-09T04:28:54.739Z,13.09
2024-05-09T04:31:21.682Z,13.08
2024-05-09T04:33:51.338Z,13.07
2024-05-09T04:36:18.553Z,13.07
2024-05-09T04:38:50.694Z,13.06
2024-05-09T04:41:17.638Z,13.04
2024-05-09T04:43:47.248Z,13.03
2024-05-09T04:46:14.924Z,13.03
2024-05-09T04:48:45.121Z,13.01
2024-05-09T04:51:12.177Z,13.01
2024-05-09T04:53:41.730Z,13.00
2024-05-09T04:56:11.356Z,13.01
2024-05-09T04:58:40.908Z,13.00
2024-05-09T05:01:07.891Z,13.00
2024-05-09T05:03:37.494Z,13.00
2024-05-09T05:06:04.667Z,12.99
2024-05-09T05:08:34.332Z,12.98
2024-05-09T05:11:01.494Z,12.99
2024-05-09T05:13:38.566Z,12.98
2024-05-09T05:16:07.341Z,12.98
2024-05-09T05:18:36.988Z,12.99
2024-05-09T05:21:04.285Z,12.98
2024-05-09T05:23:34.124Z,12.99
2024-05-09T05:26:01.149Z,13.00
2024-05-09T05:28:30.753Z,13.00
2024-05-09T05:31:00.312Z,13.01
2024-05-09T05:33:30.075Z,13.01
2024-05-09T05:35:57.399Z,13.02
2024-05-09T05:38:28.382Z,13.03
2024-05-09T05:40:55.978Z,12.98
2024-05-09T05:43:25.586Z,13.07
2024-05-09T05:45:52.499Z,13.09
2024-05-09T05:48:24.797Z,13.09
2024-05-09T05:50:51.880Z,13.11
2024-05-09T05:53:21.491Z,13.12
2024-05-09T05:55:48.544Z,13.13
2024-05-09T05:58:20.228Z,13.11
2024-05-09T06:00:48.200Z,13.10
2024-05-09T06:03:17.849Z,13.11
2024-05-09T06:05:47.527Z,13.12
2024-05-09T06:08:17.166Z,13.12
2024-05-09T06:10:44.225Z,13.15
2024-05-09T06:13:15.770Z,13.18
2024-05-09T06:15:43.640Z,13.20
2024-05-09T06:18:14.154Z,13.26
2024-05-09T06:20:43.259Z,13.28
2024-05-09T06:23:17.045Z,13.31
2024-05-09T06:25:44.293Z,13.33
2024-05-09T06:28:14.044Z,13.35
2024-05-09T06:30:42.616Z,13.39
2024-05-09T06:33:15.841Z,13.37
2024-05-09T06:35:44.351Z,13.43
2024-05-09T06:38:16.841Z,13.44
2024-05-09T06:40:44.593Z,13.46
2024-05-09T06:43:17.371Z,13.49
2024-05-09T06:45:47.343Z,13.48
2024-05-09T06:48:17.539Z,13.50
2024-05-09T06:50:44.879Z,13.52
2024-05-09T06:53:18.431Z,13.54
2024-05-09T06:55:45.488Z,13.53
2024-05-09T06:58:15.112Z,13.58
2024-05-09T07:00:42.575Z,13.58
2024-05-09T07:03:14.713Z,13.62
2024-05-09T07:05:44.578Z,13.65
2024-05-09T07:08:17.169Z,13.70
2024-05-09T07:10:44.443Z,13.73
2024-05-09T07:13:15.785Z,13.74
2024-05-09T07:15:42.958Z,13.75
2024-05-09T07:18:15.557Z,13.77
2024-05-09T07:20:43.169Z,13.77
2024-05-09T07:23:13.338Z,13.76
2024-05-09T07:25:43.324Z,13.76
2024-05-09T07:28:13.847Z,13.76
2024-05-09T07:30:40.846Z,13.79
2024-05-09T07:33:12.236Z,13.80
2024-05-09T07:35:39.504Z,13.81
2024-05-09T07:38:09.373Z,13.81
2024-05-09T07:40:40.422Z,13.81
2024-05-09T07:43:11.605Z,13.84
2024-05-09T07:45:50.538Z,13.84
2024-05-09T07:52:37.325Z,13.91
2024-05-09T07:53:45.827Z,13.93
2024-05-09T07:56:21.246Z,13.95
2024-05-09T07:58:52.919Z,13.98
2024-05-09T08:01:22.766Z,14.00
2024-05-09T08:03:52.579Z,14.05
2024-05-09T08:06:19.612Z,14.08
2024-05-09T08:08:49.498Z,14.15
2024-05-09T08:11:16.534Z,14.26
2024-05-09T08:13:46.112Z,14.33
2024-05-09T08:16:16.285Z,14.44
2024-05-09T08:18:45.874Z,14.46
2024-05-09T08:21:12.850Z,14.46
2024-05-09T08:23:42.346Z,14.42
2024-05-09T08:26:09.266Z,14.42
2024-05-09T08:28:38.887Z,14.42
2024-05-09T08:31:07.196Z,14.43
2024-05-09T08:33:39.775Z,14.48
2024-05-09T08:36:07.146Z,14.64
2024-05-09T08:38:36.644Z,14.65
2024-05-09T08:41:04.491Z,14.69
2024-05-09T08:43:34.101Z,14.78
2024-05-09T08:46:04.337Z,14.83
2024-05-09T08:48:37.248Z,14.88
2024-05-09T08:51:07.191Z,14.91
2024-05-09T08:53:36.694Z,14.97
2024-05-09T08:56:05.868Z,15.06
2024-05-09T08:58:37.754Z,15.09
2024-05-09T09:01:04.965Z,15.18
2024-05-09T09:03:36.581Z,15.32
2024-05-09T09:06:08.850Z,15.35
2024-05-09T09:08:41.216Z,15.29
2024-05-09T09:11:08.115Z,15.24
2024-05-09T09:13:37.651Z,15.37
2024-05-09T09:16:05.230Z,15.97
2024-05-09T09:18:34.980Z,15.86
2024-05-09T09:21:02.908Z,15.82
2024-05-09T09:23:36.196Z,15.90
2024-05-09T09:26:03.142Z,15.91
2024-05-09T09:28:32.725Z,15.90
2024-05-09T09:31:03.309Z,15.81
2024-05-09T09:33:36.169Z,15.75
2024-05-09T09:36:04.981Z,15.69
2024-05-09T09:38:39.947Z,15.65
2024-05-09T09:41:08.917Z,15.62
2024-05-09T09:43:39.624Z,15.59
2024-05-09T09:46:10.729Z,15.58
2024-05-09T09:48:43.112Z,15.56
2024-05-09T09:51:10.740Z,15.61
2024-05-09T09:53:44.794Z,15.66
2024-05-09T09:56:12.169Z,15.70
2024-05-09T09:58:42.836Z,15.72
2024-05-09T10:01:10.281Z,15.78
2024-05-09T10:03:41.256Z,15.79
2024-05-09T10:06:11.225Z,15.81
2024-05-09T10:08:44.374Z,15.84
2024-05-09T10:11:11.598Z,15.89
2024-05-09T10:13:44.372Z,15.92
2024-05-09T10:16:14.405Z,15.98
2024-05-09T10:18:44.211Z,16.08
2024-05-09T10:21:17.984Z,16.20
2024-05-09T10:23:59.981Z,16.26
2024-05-09T10:26:34.005Z,16.32
2024-05-09T10:29:04.739Z,16.32
2024-05-09T10:31:32.309Z,16.31
2024-05-09T10:34:03.613Z,16.29
2024-05-09T10:36:30.909Z,16.27
2024-05-09T10:39:03.093Z,16.29
2024-05-09T10:41:30.023Z,16.31
2024-05-09T10:43:59.712Z,16.34
2024-05-09T10:46:26.802Z,16.37
2024-05-09T10:48:56.697Z,16.43
2024-05-09T10:51:24.852Z,16.48
2024-05-09T10:53:56.742Z,16.51
2024-05-09T10:56:26.424Z,16.54
2024-05-09T10:58:56.170Z,16.55
2024-05-09T11:01:23.451Z,16.53
2024-05-09T11:03:53.465Z,16.57
2024-05-09T11:06:20.711Z,16.56
2024-05-09T11:08:50.827Z,16.56
2024-05-09T11:11:18.011Z,16.57
2024-05-09T11:13:50.216Z,16.59
2024-05-09T11:16:19.712Z,16.58
2024-05-09T11:18:57.981Z,16.58
2024-05-09T11:21:25.512Z,16.58
2024-05-09T11:23:55.277Z,16.60
2024-05-09T11:26:22.699Z,16.66
2024-05-09T11:28:54.906Z,16.69
2024-05-09T11:31:22.002Z,16.74
2024-05-09T11:33:51.860Z,16.76
2024-05-09T11:36:18.904Z,16.79
2024-05-09T11:38:48.467Z,16.84
2024-05-09T11:41:17.436Z,16.86
2024-05-09T11:43:47.050Z,16.89
2024-05-09T11:46:16.808Z,16.96
2024-05-09T11:48:46.671Z,17.01
2024-05-09T11:51:13.728Z,17.05
2024-05-09T11:53:43.230Z,17.02
2024-05-09T11:56:12.001Z,17.13
2024-05-09T11:58:41.626Z,17.16
2024-05-09T12:01:08.667Z,17.18
2024-05-09T12:03:40.980Z,17.19
2024-05-09T12:06:08.119Z,17.22
2024-05-09T12:08:37.710Z,17.26
2024-05-09T12:11:05.255Z,17.31
2024-05-09T12:13:34.895Z,17.38
2024-05-09T12:16:01.975Z,17.42
2024-05-09T12:18:33.909Z,17.48
2024-05-09T12:21:03.942Z,17.54
2024-05-09T12:23:33.464Z,17.59
2024-05-09T12:26:00.576Z,17.63
2024-05-09T12:28:30.198Z,17.61
2024-05-09T12:30:57.216Z,17.62
2024-05-09T12:33:26.877Z,17.66
2024-05-09T12:35:53.930Z,17.65
2024-05-09T12:38:26.077Z,17.66
2024-05-09T12:40:53.203Z,17.67
2024-05-09T12:43:23.015Z,17.67
2024-05-09T12:45:50.172Z,17.70
2024-05-09T12:48:19.845Z,17.72
2024-05-09T12:50:46.872Z,17.77
2024-05-09T12:53:16.606Z,17.78
2024-05-09T12:55:53.583Z,17.81
2024-05-09T12:58:26.821Z,17.86
2024-05-09T13:00:54.010Z,17.88
2024-05-09T13:03:23.797Z,17.93
2024-05-09T13:05:51.668Z,18.01
2024-05-09T13:08:21.669Z,18.06
2024-05-09T13:10:51.366Z,18.11
2024-05-09T13:13:21.116Z,18.11
2024-05-09T13:15:48.159Z,18.12
2024-05-09T13:18:17.758Z,18.13
2024-05-09T13:20:44.942Z,18.14
2024-05-09T13:23:14.502Z,18.13
2024-05-09T13:25:41.422Z,18.21
2024-05-09T13:28:13.759Z,18.22
2024-05-09T13:30:42.347Z,18.26
2024-05-09T13:33:13.370Z,18.29
2024-05-09T13:35:45.722Z,18.33
2024-05-09T13:38:19.846Z,18.34
2024-05-09T13:40:47.620Z,18.39
2024-05-09T13:43:22.020Z,18.38
2024-05-09T13:45:49.743Z,18.38
2024-05-09T13:48:19.891Z,18.41
2024-05-09T13:50:47.300Z,18.45
2024-05-09T13:53:16.941Z,18.46
2024-05-09T13:55:43.958Z,18.48
2024-05-09T13:58:13.572Z,18.48
2024-05-09T14:00:48.007Z,18.44
2024-05-09T14:03:20.613Z,18.40
2024-05-09T14:05:49.951Z,18.41
2024-05-09T14:08:22.348Z,18.39
2024-05-09T14:10:50.396Z,18.39
2024-05-09T14:13:20.345Z,18.39
2024-05-09T14:15:50.277Z,18.50
2024-05-09T14:18:20.553Z,18.49
2024-05-09T14:20:47.545Z,18.48
2024-05-09T14:23:17.525Z,18.49
2024-05-09T14:25:46.055Z,18.47
2024-05-09T14:28:16.859Z,18.45
2024-05-09T14:30:43.839Z,18.42
2024-05-09T14:33:23.676Z,18.40
2024-05-09T14:35:50.814Z,18.38
2024-05-09T14:38:20.303Z,18.36
2024-05-09T14:40:47.350Z,18.36
2024-05-09T14:43:19.457Z,18.35
2024-05-09T14:45:46.682Z,18.35
2024-05-09T14:48:19.988Z,18.36
2024-05-09T14:50:47.229Z,18.36
2024-05-09T14:53:17.530Z,18.42
2024-05-09T14:55:44.714Z,18.42
2024-05-09T14:58:14.818Z,18.41
2024-05-09T15:00:46.751Z,18.39
2024-05-09T15:03:22.891Z,18.38
2024-05-09T15:05:51.081Z,18.38
2024-05-09T15:08:21.911Z,18.37
2024-05-09T15:10:50.223Z,18.35
2024-05-09T15:13:20.825Z,18.33
2024-05-09T15:15:48.202Z,18.33
2024-05-09T15:18:18.565Z,18.33
2024-05-09T15:20:48.878Z,18.34
2024-05-09T15:23:18.937Z,18.31
2024-05-09T15:25:45.917Z,18.33
2024-05-09T15:28:15.784Z,18.32
2024-05-09T15:30:46.285Z,18.33
2024-05-09T15:33:16.825Z,18.36
2024-05-09T15:35:46.233Z,18.37
2024-05-09T15:38:18.934Z,18.40
2024-05-09T15:40:46.250Z,18.42
2024-05-09T15:43:16.063Z,18.45
2024-05-09T15:45:43.091Z,18.46
2024-05-09T15:48:12.988Z,18.48
2024-05-09T15:50:41.997Z,18.46
2024-05-09T15:53:13.218Z,18.44
2024-05-09T15:55:46.070Z,18.39
2024-05-09T15:58:14.234Z,18.37
2024-05-09T16:00:46.933Z,18.35
2024-05-09T16:03:15.870Z,18.33
2024-05-09T16:05:47.363Z,18.32
2024-05-09T16:08:15.720Z,18.31
2024-05-09T16:10:49.695Z,18.29
2024-05-09T16:13:17.736Z,18.31
2024-05-09T16:15:48.205Z,18.34
2024-05-09T16:18:15.722Z,18.33
2024-05-09T16:20:48.272Z,18.33
2024-05-09T16:23:17.059Z,18.32
2024-05-09T16:25:51.444Z,18.33
2024-05-09T16:28:18.908Z,18.32
2024-05-09T16:30:48.673Z,18.28
2024-05-09T16:33:19.173Z,18.32
2024-05-09T16:35:49.346Z,18.29
2024-05-09T16:38:16.414Z,18.31
2024-05-09T16:40:46.136Z,18.32
2024-05-09T16:43:15.953Z,18.34
2024-05-09T16:45:46.465Z,18.36
2024-05-09T16:48:14.198Z,18.37
2024-05-09T16:50:44.124Z,18.36
2024-05-09T16:53:11.229Z,18.36
2024-05-09T16:55:40.835Z,18.34
2024-05-09T16:58:08.353Z,18.32
2024-05-09T17:00:43.268Z,18.31
2024-05-09T17:03:13.867Z,18.31
2024-05-09T17:05:46.035Z,18.33
2024-05-09T17:08:15.740Z,18.30
2024-05-09T17:10:45.592Z,18.30
2024-05-09T17:13:15.396Z,18.33
2024-05-09T17:15:48.070Z,18.31
2024-05-09T17:18:15.702Z,18.33
2024-05-09T17:20:45.465Z,18.33
2024-05-09T17:23:13.988Z,18.34
2024-05-09T17:25:44.249Z,18.36
2024-05-09T17:28:11.893Z,18.32
2024-05-09T17:30:42.808Z,18.36
2024-05-09T17:33:13.405Z,18.37
2024-05-09T17:35:45.807Z,18.38
2024-05-09T17:38:12.924Z,18.38
2024-05-09T17:40:42.504Z,18.38
2024-05-09T17:43:10.721Z,18.37
2024-05-09T17:45:41.627Z,18.38
2024-05-09T17:48:10.380Z,18.38
2024-05-09T17:50:43.337Z,18.36
2024-05-09T17:53:11.160Z,18.35
2024-05-09T17:55:41.665Z,18.36
2024-05-09T17:58:09.634Z,18.35
2024-05-09T18:00:41.933Z,18.36
2024-05-09T18:03:11.734Z,18.35
2024-05-09T18:05:45.570Z,18.36
2024-05-09T18:08:13.355Z,18.35
2024-05-09T18:10:44.411Z,18.32
2024-05-09T18:13:16.077Z,18.35
2024-05-09T18:15:45.709Z,18.34
2024-05-09T18:18:13.262Z,18.33
2024-05-09T18:20:46.434Z,18.32
2024-05-09T18:23:16.166Z,18.31
2024-05-09T18:25:48.118Z,18.30
2024-05-09T18:28:15.924Z,18.30
2024-05-09T18:30:45.870Z,18.28
2024-05-09T18:33:13.435Z,18.26
2024-05-09T18:35:47.268Z,18.25
2024-05-09T18:38:14.353Z,18.23
2024-05-09T18:40:46.229Z,18.21
2024-05-09T18:43:15.512Z,18.20
2024-05-09T18:45:45.162Z,18.19
2024-05-09T18:48:13.442Z,18.18
2024-05-09T18:50:43.155Z,18.18
2024-05-09T18:53:16.021Z,18.17
2024-05-09T18:55:45.840Z,18.16
2024-05-09T18:58:12.867Z,18.16
2024-05-09T19:00:45.369Z,18.13
2024-05-09T19:03:14.935Z,18.13
2024-05-09T19:05:46.332Z,18.13
2024-05-09T19:08:16.351Z,18.12
2024-05-09T19:10:46.489Z,18.12
2024-05-09T19:13:14.571Z,18.09
2024-05-09T19:15:45.058Z,18.09
2024-05-09T19:18:13.214Z,18.08
2024-05-09T19:20:43.810Z,18.06
2024-05-09T19:23:11.657Z,18.06
2024-05-09T19:25:44.090Z,18.06
2024-05-09T19:28:11.135Z,18.03
2024-05-09T19:30:42.477Z,18.04
2024-05-09T19:33:11.880Z,18.02
2024-05-09T19:35:42.800Z,18.02
2024-05-09T19:38:09.906Z,18.00
2024-05-09T19:40:39.511Z,18.00
2024-05-09T19:43:09.404Z,17.98
2024-05-09T19:45:39.399Z,17.96
2024-05-09T19:48:07.438Z,17.95
2024-05-09T19:50:42.519Z,17.94
2024-05-09T19:53:12.146Z,17.93
2024-05-09T19:55:41.998Z,17.92
2024-05-09T19:58:12.708Z,17.90
2024-05-09T20:00:44.077Z,17.88
2024-05-09T20:03:12.975Z,17.85
2024-05-09T20:05:43.172Z,17.85
2024-05-09T20:08:10.356Z,17.83
2024-05-09T20:10:40.230Z,17.81
2024-05-09T20:13:08.205Z,17.81
2024-05-09T20:15:40.918Z,17.77
2024-05-09T20:18:08.221Z,17.77
2024-05-09T20:20:41.663Z,17.76
2024-05-09T20:23:11.183Z,17.75
2024-05-09T20:25:40.984Z,17.74
2024-05-09T20:28:08.087Z,17.73
2024-05-09T20:30:40.621Z,17.72
2024-05-09T20:33:08.998Z,17.71
2024-05-09T20:35:39.446Z,17.71
2024-05-09T20:38:06.547Z,17.69
2024-05-09T20:40:38.922Z,17.68
2024-05-09T20:43:08.485Z,17.68
2024-05-09T20:45:41.287Z,17.65
2024-05-09T20:48:09.841Z,17.64
2024-05-09T20:50:42.030Z,17.65
2024-05-09T20:53:11.466Z,17.63
2024-05-09T20:55:41.570Z,17.62
2024-05-09T20:58:09.424Z,17.61
2024-05-09T21:00:44.689Z,17.58
2024-05-09T21:03:14.248Z,17.56
2024-05-09T21:05:45.269Z,17.56
2024-05-09T21:08:12.438Z,17.55
2024-05-09T21:10:42.062Z,17.53
2024-05-09T21:13:09.125Z,17.51
2024-05-09T21:15:41.381Z,17.50
2024-05-09T21:18:08.840Z,17.47
2024-05-09T21:20:38.552Z,17.45
2024-05-09T21:23:05.733Z,17.43
2024-05-09T21:25:35.264Z,17.43
2024-05-09T21:28:02.375Z,17.41
2024-05-09T21:30:40.708Z,17.38
2024-05-09T21:33:14.079Z,17.39
2024-05-09T21:35:45.238Z,17.37
2024-05-09T21:38:14.032Z,17.36
2024-05-09T21:40:44.545Z,17.30
2024-05-09T21:43:12.029Z,17.33
2024-05-09T21:45:41.654Z,17.31
2024-05-09T21:48:12.582Z,17.30
2024-05-09T21:50:42.654Z,17.28
2024-05-09T21:53:10.261Z,17.29
2024-05-09T21:55:39.921Z,17.26
2024-05-09T21:58:06.963Z,17.25
2024-05-09T22:00:39.415Z,17.23
2024-05-09T22:03:08.313Z,17.21
2024-05-09T22:05:43.851Z,17.20
2024-05-09T22:08:11.149Z,17.19
2024-05-09T22:10:41.046Z,17.17
2024-05-09T22:13:08.218Z,17.18
2024-05-09T22:15:40.349Z,17.16
2024-05-09T22:18:09.485Z,17.14
2024-05-09T22:20:45.761Z,17.13
2024-05-09T22:23:14.912Z,17.12
2024-05-09T22:25:44.897Z,17.11
2024-05-09T22:28:14.771Z,17.11
2024-05-09T22:30:46.239Z,17.09
2024-05-09T22:33:15.038Z,17.08
2024-05-09T22:35:47.586Z,17.08
2024-05-09T22:38:14.604Z,17.07
2024-05-09T22:40:48.385Z,17.06
2024-05-09T22:43:18.468Z,17.05
2024-05-09T22:45:49.036Z,17.06
2024-05-09T22:48:16.387Z,17.05
2024-05-09T22:50:48.730Z,17.04
2024-05-09T22:53:15.877Z,17.03
2024-05-09T22:55:45.460Z,17.02
2024-05-09T22:58:12.574Z,17.01
2024-05-09T23:00:42.285Z,17.01
2024-05-09T23:03:09.276Z,17.00
2024-05-09T23:05:38.904Z,16.99
2024-05-09T23:08:08.704Z,17.00
2024-05-09T23:10:38.643Z,16.99
2024-05-09T23:13:06.187Z,16.97
2024-05-09T23:15:36.071Z,16.95
2024-05-09T23:18:03.084Z,16.94
2024-05-09T23:20:37.764Z,16.94
2024-05-09T23:23:10.875Z,16.91
2024-05-09T23:25:41.988Z,16.90
2024-05-09T23:28:09.380Z,16.86
2024-05-09T23:30:41.252Z,16.86
2024-05-09T23:33:10.451Z,16.85
2024-05-09T23:35:40.425Z,16.83
2024-05-09T23:38:10.065Z,16.82
2024-05-09T23:40:41.404Z,16.80
2024-05-09T23:43:10.040Z,16.79
2024-05-09T23:45:40.017Z,16.78
2024-05-09T23:48:08.061Z,16.78
2024-05-09T23:50:39.638Z,16.75
2024-05-09T23:53:10.959Z,16.75
2024-05-09T23:55:41.132Z,16.74
2024-05-09T23:58:08.201Z,16.74
